createdAt,value
2022-10-20T00:00:15.202Z,7.65
2022-10-20T00:05:20.673Z,7.61
2022-10-20T00:10:26.393Z,7.55
2022-10-20T00:15:31.918Z,7.58
2022-10-20T00:20:40.595Z,7.56
2022-10-20T00:26:01.478Z,7.52
2022-10-20T00:31:08.448Z,7.47
2022-10-20T00:36:17.281Z,7.49
2022-10-20T00:41:23.014Z,7.46
2022-10-20T00:46:42.370Z,7.42
2022-10-20T00:51:48.382Z,7.40
2022-10-20T00:56:56.563Z,7.39
2022-10-20T01:02:03.787Z,7.35
2022-10-20T01:07:09.259Z,7.30
2022-10-20T01:12:40.539Z,7.24
2022-10-20T01:18:14.572Z,7.25
2022-10-20T01:23:34.824Z,7.29
2022-10-20T01:28:57.982Z,7.20
2022-10-20T01:34:09.433Z,7.14
2022-10-20T01:39:17.936Z,7.08
2022-10-20T01:44:26.629Z,7.04
2022-10-20T01:49:32.549Z,6.89
2022-10-20T01:54:37.986Z,6.85
2022-10-20T02:00:04.533Z,6.82
2022-10-20T02:05:30.446Z,6.79
2022-10-20T02:10:38.863Z,6.79
2022-10-20T02:15:56.500Z,6.73
2022-10-20T02:21:04.860Z,6.69
2022-10-20T02:26:13.135Z,6.68
2022-10-20T02:31:20.151Z,6.65
2022-10-20T02:36:30.920Z,6.60
2022-10-20T02:41:37.143Z,6.56
2022-10-20T02:46:43.414Z,6.56
2022-10-20T02:51:49.434Z,6.59
2022-10-20T02:56:55.361Z,6.58
2022-10-20T03:02:00.903Z,6.53
2022-10-20T03:07:06.483Z,6.52
2022-10-20T03:12:12.264Z,6.51
2022-10-20T03:17:17.806Z,6.47
2022-10-20T03:22:23.322Z,6.43
2022-10-20T03:27:28.937Z,6.44
2022-10-20T03:32:35.092Z,6.46
2022-10-20T03:37:41.009Z,6.47
2022-10-20T03:42:46.540Z,6.42
2022-10-20T03:47:52.630Z,6.34
2022-10-20T03:52:58.066Z,6.27
2022-10-20T03:58:03.575Z,6.18
2022-10-20T04:03:09.270Z,6.16
2022-10-20T04:13:20.177Z,6.08
2022-10-20T04:18:25.691Z,6.07
2022-10-20T04:23:31.329Z,6.01
2022-10-20T04:28:36.994Z,6.02
2022-10-20T04:33:42.722Z,5.98
2022-10-20T04:38:48.172Z,5.99
2022-10-20T04:43:54.555Z,5.98
2022-10-20T04:49:00.068Z,5.97
2022-10-20T04:59:13.522Z,5.92
2022-10-20T05:04:19.914Z,5.95
2022-10-20T05:09:25.350Z,5.91
2022-10-20T05:14:30.817Z,5.88
2022-10-20T05:19:36.363Z,5.87
2022-10-20T05:24:41.870Z,5.90
2022-10-20T05:29:47.365Z,5.89
2022-10-20T05:34:52.725Z,5.96
2022-10-20T05:40:00.059Z,5.95
2022-10-20T05:45:06.480Z,5.98
2022-10-20T05:50:12.635Z,6.01
2022-10-20T05:55:18.297Z,6.06
2022-10-20T06:00:25.307Z,6.08
2022-10-20T06:05:30.745Z,6.13
2022-10-20T06:10:36.186Z,6.16
2022-10-20T06:15:41.704Z,6.25
2022-10-20T06:20:47.102Z,6.31
2022-10-20T06:25:52.558Z,6.34
2022-10-20T06:30:58.270Z,6.42
2022-10-20T06:36:03.717Z,6.49
2022-10-20T06:41:12.530Z,6.58
2022-10-20T06:46:19.621Z,6.70
2022-10-20T06:51:25.153Z,6.77
2022-10-20T06:56:32.751Z,6.90
2022-10-20T07:01:40.165Z,7.06
2022-10-20T07:06:47.790Z,7.20
2022-10-20T07:11:54.417Z,7.35
2022-10-20T07:16:59.999Z,7.44
2022-10-20T07:22:05.504Z,7.59
2022-10-20T07:27:10.979Z,7.75
2022-10-20T07:32:16.599Z,7.88
2022-10-20T07:37:22.144Z,8.13
2022-10-20T07:42:27.683Z,8.34
2022-10-20T07:47:38.108Z,8.58
2022-10-20T07:52:40.694Z,8.79
2022-10-20T07:57:46.205Z,8.90
2022-10-20T08:02:51.593Z,9.07
2022-10-20T08:07:58.272Z,9.22
2022-10-20T08:13:03.911Z,9.39
2022-10-20T08:18:09.344Z,9.65
2022-10-20T08:23:16.362Z,9.83
2022-10-20T08:28:24.705Z,9.98
2022-10-20T08:33:29.019Z,10.06
2022-10-20T08:38:35.202Z,10.21
2022-10-20T08:43:42.853Z,10.36
2022-10-20T08:48:49.927Z,10.49
2022-10-20T08:54:00.868Z,10.78
2022-10-20T08:59:27.593Z,10.89
2022-10-20T09:09:47.676Z,11.12
2022-10-20T09:14:53.144Z,11.42
2022-10-20T09:20:01.027Z,11.34
2022-10-20T09:25:07.102Z,11.48
2022-10-20T09:30:24.358Z,11.53
2022-10-20T09:35:32.831Z,11.53
2022-10-20T09:40:56.447Z,11.73
2022-10-20T09:46:04.909Z,11.78
2022-10-20T09:56:32.777Z,11.88
2022-10-20T10:01:41.232Z,12.07
2022-10-20T10:06:46.772Z,12.24
2022-10-20T10:12:13.019Z,12.22
2022-10-20T10:17:36.856Z,12.27
2022-10-20T10:22:43.625Z,12.31
2022-10-20T10:28:01.178Z,12.40
2022-10-20T10:33:27.954Z,12.46
2022-10-20T10:38:36.935Z,12.48
2022-10-20T10:43:50.103Z,12.47
2022-10-20T10:49:25.829Z,12.53
2022-10-20T10:54:57.253Z,12.70
2022-10-20T11:00:05.757Z,12.76
2022-10-20T11:05:23.101Z,12.75
2022-10-20T11:10:48.359Z,12.94
2022-10-20T11:15:56.797Z,13.22
2022-10-20T11:21:40.302Z,13.21
2022-10-20T11:26:50.613Z,13.31
2022-10-20T11:32:13.471Z,13.53
2022-10-20T11:37:24.660Z,13.64
2022-10-20T11:42:51.298Z,13.96
2022-10-20T11:48:11.786Z,14.31
2022-10-20T11:53:32.490Z,14.05
2022-10-20T11:59:06.383Z,13.99
2022-10-20T12:04:26.858Z,13.90
2022-10-20T12:09:37.936Z,14.16
2022-10-20T12:14:46.587Z,14.23
2022-10-20T12:19:53.325Z,14.27
2022-10-20T12:25:01.833Z,14.21
2022-10-20T12:30:42.333Z,14.34
2022-10-20T12:36:19.780Z,14.70
2022-10-20T12:41:32.903Z,14.48
2022-10-20T12:46:41.335Z,14.31
2022-10-20T12:51:55.955Z,14.28
2022-10-20T12:57:04.383Z,14.49
2022-10-20T13:02:16.598Z,14.68
2022-10-20T13:07:52.372Z,14.68
2022-10-20T13:13:06.830Z,14.47
2022-10-20T13:18:24.153Z,14.61
2022-10-20T13:23:44.725Z,14.85
2022-10-20T13:28:52.857Z,14.87
2022-10-20T13:34:22.196Z,14.75
2022-10-20T13:39:39.686Z,14.75
2022-10-20T13:44:48.203Z,14.57
2022-10-20T13:50:12.172Z,14.51
2022-10-20T13:55:26.334Z,14.50
2022-10-20T14:00:34.459Z,14.53
2022-10-20T14:05:40.557Z,14.58
2022-10-20T14:10:52.015Z,14.64
2022-10-20T14:15:59.905Z,14.69
2022-10-20T14:21:20.063Z,14.83
2022-10-20T14:26:26.114Z,14.78
2022-10-20T14:31:32.067Z,14.66
2022-10-20T14:36:41.086Z,14.47
2022-10-20T14:41:46.446Z,14.33
2022-10-20T14:46:53.721Z,14.25
2022-10-20T14:52:04.825Z,14.20
2022-10-20T14:57:13.352Z,13.90
2022-10-20T15:02:28.013Z,13.89
2022-10-20T15:07:36.766Z,13.82
2022-10-20T15:12:45.532Z,13.77
2022-10-20T15:18:09.244Z,13.67
2022-10-20T15:23:26.338Z,13.57
2022-10-20T15:28:38.141Z,13.38
2022-10-20T15:33:43.724Z,13.24
2022-10-20T15:38:50.606Z,13.22
2022-10-20T15:43:56.462Z,13.12
2022-10-20T15:49:01.914Z,12.94
2022-10-20T15:54:08.062Z,12.82
2022-10-20T15:59:13.649Z,12.77
2022-10-20T16:04:25.447Z,12.66
2022-10-20T16:09:31.226Z,12.57
2022-10-20T16:14:38.202Z,12.53
2022-10-20T16:19:43.811Z,12.39
2022-10-20T16:24:49.358Z,12.19
2022-10-20T16:29:54.972Z,12.10
2022-10-20T16:35:00.522Z,11.96
2022-10-20T16:40:06.511Z,11.89
2022-10-20T16:45:12.356Z,11.80
2022-10-20T16:50:17.960Z,11.70
2022-10-20T16:55:24.074Z,11.60
2022-10-20T17:00:31.407Z,11.52
2022-10-20T17:05:36.925Z,11.44
2022-10-20T17:10:42.987Z,11.44
2022-10-20T17:15:48.643Z,11.38
2022-10-20T17:20:55.876Z,11.36
2022-10-20T17:26:03.515Z,11.36
2022-10-20T17:31:11.842Z,11.26
2022-10-20T17:36:18.003Z,11.20
2022-10-20T17:41:24.513Z,11.12
2022-10-20T17:46:30.336Z,11.08
2022-10-20T17:51:35.940Z,11.03
2022-10-20T17:56:41.327Z,10.98
2022-10-20T18:01:46.999Z,10.99
2022-10-20T18:06:52.761Z,10.92
2022-10-20T18:11:58.363Z,10.91
2022-10-20T18:17:04.022Z,10.86
2022-10-20T18:22:09.478Z,10.88
2022-10-20T18:27:14.991Z,10.87
2022-10-20T18:32:20.556Z,10.90
2022-10-20T18:37:26.074Z,10.84
2022-10-20T18:42:31.475Z,10.71
2022-10-20T18:47:37.669Z,10.67
2022-10-20T18:52:43.498Z,11.35
2022-10-20T18:57:50.247Z,10.87
2022-10-20T19:02:57.992Z,10.70
2022-10-20T19:08:02.884Z,10.55
2022-10-20T19:13:08.364Z,10.37
2022-10-20T19:18:14.020Z,10.36
2022-10-20T19:23:19.681Z,10.30
2022-10-20T19:28:25.350Z,10.24
2022-10-20T19:33:31.286Z,10.29
2022-10-20T19:38:36.921Z,10.22
2022-10-20T19:43:42.741Z,10.19
2022-10-20T19:48:48.790Z,10.24
2022-10-20T19:53:54.355Z,10.14
2022-10-20T19:59:01.283Z,10.08
2022-10-20T20:04:08.725Z,10.14
2022-10-20T20:09:17.467Z,10.14
2022-10-20T20:14:23.096Z,10.03
2022-10-20T20:19:28.642Z,10.01
2022-10-20T20:24:34.244Z,9.97
2022-10-20T20:29:39.705Z,9.99
2022-10-20T20:34:45.473Z,9.96
2022-10-20T20:39:51.018Z,9.96
2022-10-20T20:44:56.395Z,9.96
2022-10-20T20:50:01.951Z,9.88
2022-10-20T20:55:07.806Z,9.84
2022-10-20T21:00:13.993Z,9.85
2022-10-20T21:05:19.503Z,10.55
2022-10-20T21:10:25.209Z,10.18
2022-10-20T21:15:30.741Z,10.12
2022-10-20T21:20:36.473Z,10.03
2022-10-20T21:25:44.912Z,9.97
2022-10-20T21:30:50.995Z,10.03
2022-10-20T21:36:06.365Z,9.99
2022-10-20T21:41:14.985Z,9.97
2022-10-20T21:46:26.039Z,9.94
2022-10-20T21:51:34.343Z,10.00
2022-10-20T21:56:41.809Z,9.99
2022-10-20T22:01:48.868Z,10.00
2022-10-20T22:06:56.266Z,10.01
2022-10-20T22:12:01.895Z,9.97
2022-10-20T22:17:07.390Z,10.03
2022-10-20T22:22:12.942Z,9.98
2022-10-20T22:27:31.321Z,10.03
2022-10-20T22:32:25.636Z,10.14
2022-10-20T22:37:31.164Z,10.13
2022-10-20T22:42:36.977Z,10.13
2022-10-20T22:47:42.859Z,10.17
2022-10-20T22:52:48.248Z,10.14
2022-10-20T22:57:54.147Z,10.12
2022-10-20T23:02:59.896Z,10.13
2022-10-20T23:08:05.616Z,10.20
2022-10-20T23:13:11.008Z,10.17
2022-10-20T23:18:16.466Z,10.16
2022-10-20T23:23:21.928Z,10.09
2022-10-20T23:28:27.313Z,9.97
2022-10-20T23:33:35.200Z,9.98
2022-10-20T23:38:46.437Z,9.88
2022-10-20T23:43:51.880Z,9.97
2022-10-20T23:48:57.274Z,9.86
2022-10-20T23:54:02.794Z,9.86
2022-10-20T23:59:08.244Z,9.81
